Detall de PIREP

Printer-friendly versionPDF version

[2016/11/01 16:57:00]
Flight IATA:CT2308
Pilot Number:012
Company ICAO:CAT
Aircraft Type:B463/A
PAX:100
Aircraft Registration:PAX
Departing Airport: LIEA
Destination Airport: LIMJ
Alternate Airport:LFMN
Online: VATSIM
Route:MINKA UL5 TINTO UL12 ELB M729 IDONA
Flight Level:F280
No Slew and time accel
No pause
Crash detect
Detect pilot in Cockpit between each 30 and 45 minutes
16:57 Zero fuel Weight: 74832 Lbs, Fuel Weight: 17328 Lbs
16:57 VATSIM:LIEA 011620Z VRB02KT CAVOK 18/14 Q1024
16:57 VATSIM:LIMJ 011620Z 17008KT 9999 BKN020 18/13 Q1021
16:57 Parking Brakes off
17:02 Take-off
17:02 Take off Weight: 91814 Lbs
17:02 Wind: 358º @ 002 Knots Heading: 024º
17:02 POS N40º 37´ 59´´ E008º 17´ 30´´
17:02 Flaps:2 at 151 Knots
17:02 Gear Up: 157 Knots
17:02 Flaps:1 at 165 Knots
17:03 Flaps:0 at 180 Knots
17:13 TOC
17:13 Fuel Weight: 15062 Lb
17:17 Wind:008º@019 Knots Heading: 066º Ground Speed: 417 Knots Altitude 28290 ft
17:32 Wind:016º@018 Knots Heading: 339º Ground Speed: 405 Knots Altitude 28287 ft
17:45 TOD
17:45 Fuel Weight: 11982 Lb
17:47 Wind:329º@012 Knots Heading: 330º Ground Speed: 347 Knots Altitude 25337 ft
17:54 Flaps:1 at 191 Knots
17:54 Flaps:2 at 187 Knots
17:54 Gear Down: 186 Knots
17:55 Flaps:3 at 170 Knots
17:55 Flaps:4 at 154 Knots
18:02 Wind:168º@008 Knots Heading: 276º Ground Speed: 146 Knots Altitude 790 ft
18:03 TouchDown:Rate -157 ft/min Speed: 128 Knots
18:03 VATSIM:LIMJ 011750Z 18008KT 9999 FEW018 BKN030 18/13 Q1022
18:03 Land
18:03 Wind:168º@008 Knots
18:03 Heading: 286º
18:03 Flight Duration: 01:01
18:03 Landing Weight: 86040 Lbs
18:03 POS N44º 24´ 45´´ E008º 50´ 19´´
18:05 Parking brakes on
18:05 Block to Block Duration: 01:08
18:05 Final Fuel: 11108 Lbls
18:05 Spent Fuel: 6219 Lbls
18:05 Flight Length: 348 NM
18:05 TOD Land Length: 72 NM

Exportar CSV

Powered by Drupal - Modified by Danger4k